Time;durP1;ratioP1;P1;durP2;ratioP2;P2;SDS_P1;SDS_P2;PMS_P1;PMS_P2;Temp;Humidity;BMP_temperature;BMP_pressure;BME280_temperature;BME280_humidity;BME280_pressure;Samples;Min_cycle;Max_cycle;Signal;HPM_P1;HPM_P2
2023/10/13 00:01:04;;;;;;;;;4.00;3.00;;;;;;;;5144142;27;8943;-82
2023/10/13 00:03:31;;;;;;;;;5.00;3.00;;;;;;;;5135101;27;8775;-81
2023/10/13 00:05:59;;;;;;;;;3.00;3.00;;;;;;;;5154260;27;10105;-81
2023/10/13 00:08:24;;;;;;;;;3.00;3.00;;;;;;;;5145637;27;9437;-81
2023/10/13 00:10:49;;;;;;;;;4.00;4.00;;;;;;;;5145660;27;10172;-82
2023/10/13 00:13:19;;;;;;;;;3.00;3.00;;;;;;;;5144654;27;8875;-81
2023/10/13 00:18:22;;;;;;;;;5.00;3.33;;;;;;;;5144992;27;9346;-82
2023/10/13 00:20:50;;;;;;;;;2.00;2.00;;;;;;;;5133447;27;9321;-82
2023/10/13 00:23:20;;;;;;;;;6.00;4.00;;;;;;;;5124275;28;8806;-81
2023/10/13 00:25:50;;;;;;;;;4.00;3.00;;;;;;;;5124585;28;9514;-82
2023/10/13 00:28:23;;;;;;;;;4.33;4.33;;;;;;;;5139974;27;9413;-82
2023/10/13 00:30:51;;;;;;;;;4.33;3.33;;;;;;;;5124236;28;9439;-82
2023/10/13 00:33:19;;;;;;;;;4.67;3.33;;;;;;;;5123821;27;9373;-82
2023/10/13 00:35:47;;;;;;;;;3.33;3.33;;;;;;;;5122781;27;10303;-81
2023/10/13 00:38:16;;;;;;;;;6.33;3.67;;;;;;;;5123877;28;9113;-82
2023/10/13 00:40:44;;;;;;;;;4.67;3.33;;;;;;;;5121764;27;9446;-81
2023/10/13 00:48:34;;;;;;;;;4.00;4.00;;;;;;;;5124083;27;10201;-81
2023/10/13 00:51:06;;;;;;;;;7.67;5.00;;;;;;;;5122562;28;9311;-81
2023/10/13 00:53:33;;;;;;;;;7.67;3.00;;;;;;;;5131955;27;9291;-82
2023/10/13 00:56:05;;;;;;;;;2.00;2.00;;;;;;;;5144898;27;9445;-82
2023/10/13 00:58:31;;;;;;;;;4.00;3.00;;;;;;;;5128275;27;9375;-82
2023/10/13 01:01:17;;;;;;;;;5.00;5.00;;;;;;;;5122521;28;9470;-82
2023/10/13 01:03:42;;;;;;;;;3.67;3.67;;;;;;;;5132439;27;9059;-81
2023/10/13 01:06:07;;;;;;;;;9.00;3.33;;;;;;;;5122265;28;9482;-82
2023/10/13 01:08:35;;;;;;;;;7.67;4.33;;;;;;;;5121302;28;8810;-82
2023/10/13 01:11:00;;;;;;;;;4.33;3.67;;;;;;;;5123937;28;8719;-82
2023/10/13 01:13:26;;;;;;;;;10.67;4.33;;;;;;;;5122566;28;9470;-82
2023/10/13 01:15:52;;;;;;;;;5.67;5.00;;;;;;;;5123934;28;8793;-82
2023/10/13 01:18:17;;;;;;;;;6.33;3.33;;;;;;;;5123086;28;9433;-81
2023/10/13 01:20:45;;;;;;;;;6.67;4.67;;;;;;;;5122391;28;8795;-82
2023/10/13 01:23:24;;;;;;;;;5.33;4.00;;;;;;;;5122313;28;8909;-81
2023/10/13 01:25:49;;;;;;;;;8.00;5.33;;;;;;;;5122006;28;9505;-81
2023/10/13 01:28:16;;;;;;;;;4.00;4.00;;;;;;;;5137559;27;9293;-81
2023/10/13 01:30:51;;;;;;;;;6.00;4.00;;;;;;;;5122123;28;8783;-82
2023/10/13 01:33:17;;;;;;;;;4.67;4.67;;;;;;;;5121308;28;9358;-81
2023/10/13 01:35:47;;;;;;;;;3.67;1.67;;;;;;;;5122499;28;9591;-81
2023/10/13 01:38:13;;;;;;;;;6.00;4.00;;;;;;;;5135194;27;8769;-81
2023/10/13 01:40:38;;;;;;;;;6.33;5.00;;;;;;;;5125835;27;9477;-81
2023/10/13 01:43:04;;;;;;;;;5.00;4.00;;;;;;;;5122018;28;9500;-82
2023/10/13 01:45:30;;;;;;;;;4.33;4.00;;;;;;;;5122918;28;8776;-82
2023/10/13 01:47:55;;;;;;;;;5.67;5.33;;;;;;;;5122976;27;8815;-81
2023/10/13 01:50:27;;;;;;;;;9.25;6.00;;;;;;;;5133842;27;9676;-82
2023/10/13 01:52:59;;;;;;;;;8.00;4.00;;;;;;;;5141942;27;8780;-80
2023/10/13 01:55:25;;;;;;;;;4.00;4.00;;;;;;;;5142229;27;11042;-82
2023/10/13 01:57:50;;;;;;;;;6.67;3.33;;;;;;;;5143936;27;9414;-81
2023/10/13 02:00:18;;;;;;;;;5.67;5.00;;;;;;;;5135807;27;8800;-81
2023/10/13 02:02:45;;;;;;;;;11.00;4.00;;;;;;;;5121275;28;8785;-81
2023/10/13 02:05:10;;;;;;;;;6.33;4.00;;;;;;;;5141602;27;9404;-82
2023/10/13 02:07:38;;;;;;;;;8.67;4.00;;;;;;;;5138146;27;9272;-81
2023/10/13 02:10:11;;;;;;;;;4.00;4.00;;;;;;;;5138965;27;8783;-81
2023/10/13 02:12:42;;;;;;;;;5.00;5.00;;;;;;;;5122535;28;9432;-81
2023/10/13 02:15:08;;;;;;;;;6.67;5.00;;;;;;;;5122904;28;9475;-81
2023/10/13 02:17:41;;;;;;;;;4.67;4.67;;;;;;;;5137316;27;9556;-81
2023/10/13 02:20:09;;;;;;;;;11.00;5.33;;;;;;;;5143194;27;8815;-82
2023/10/13 02:22:35;;;;;;;;;8.00;5.00;;;;;;;;5143621;27;9295;-81
2023/10/13 02:25:06;;;;;;;;;10.00;5.67;;;;;;;;5143459;27;10225;-82
2023/10/13 02:27:41;;;;;;;;;6.00;6.00;;;;;;;;5143230;27;9323;-81
2023/10/13 02:30:12;;;;;;;;;5.33;5.33;;;;;;;;5143503;27;9761;-81
2023/10/13 02:32:40;;;;;;;;;5.67;5.67;;;;;;;;5141665;27;9413;-81
2023/10/13 02:35:06;;;;;;;;;8.67;6.67;;;;;;;;5141700;27;10384;-81
2023/10/13 02:37:31;;;;;;;;;8.33;4.00;;;;;;;;5142151;27;9424;-81
2023/10/13 02:39:57;;;;;;;;;13.00;5.67;;;;;;;;5136379;27;11375;-81
2023/10/13 02:42:23;;;;;;;;;7.00;6.33;;;;;;;;5122928;28;8787;-81
2023/10/13 02:44:52;;;;;;;;;8.00;6.00;;;;;;;;5122466;28;9627;-82
2023/10/13 02:47:19;;;;;;;;;5.00;4.33;;;;;;;;5136087;27;8802;-82
2023/10/13 02:49:47;;;;;;;;;9.33;5.00;;;;;;;;5122037;28;9429;-81
2023/10/13 02:52:12;;;;;;;;;7.00;6.00;;;;;;;;5130747;27;9342;-82
2023/10/13 02:54:50;;;;;;;;;5.33;4.67;;;;;;;;5121994;27;10257;-82
2023/10/13 02:57:19;;;;;;;;;9.33;6.00;;;;;;;;5121831;28;8721;-81
2023/10/13 02:59:48;;;;;;;;;9.00;5.00;;;;;;;;5126253;27;9559;-80
2023/10/13 03:02:25;;;;;;;;;5.33;5.33;;;;;;;;5123745;27;9469;-82
2023/10/13 03:05:08;;;;;;;;;7.00;6.00;;;;;;;;5121636;28;10148;-82
2023/10/13 03:07:36;;;;;;;;;6.00;6.00;;;;;;;;5126289;27;9440;-82
2023/10/13 03:10:09;;;;;;;;;6.25;5.00;;;;;;;;5125438;27;9783;-82
2023/10/13 03:12:35;;;;;;;;;7.25;6.50;;;;;;;;5125312;27;9547;-81
2023/10/13 03:15:15;;;;;;;;;10.75;6.75;;;;;;;;5124477;27;9978;-82
2023/10/13 03:17:43;;;;;;;;;8.50;7.00;;;;;;;;5124366;28;9576;-82
2023/10/13 03:20:13;;;;;;;;;5.00;5.00;;;;;;;;5125214;28;9562;-82
2023/10/13 03:22:38;;;;;;;;;4.00;4.00;;;;;;;;5124263;28;9356;-81
2023/10/13 03:25:09;;;;;;;;;4.33;4.00;;;;;;;;5124732;28;9647;-82
2023/10/13 03:28:00;;;;;;;;;6.50;6.00;;;;;;;;5123949;28;8884;-82
2023/10/13 03:30:35;;;;;;;;;4.33;4.00;;;;;;;;5125065;27;9575;-82
2023/10/13 03:33:06;;;;;;;;;8.50;6.25;;;;;;;;5138136;27;9383;-82
2023/10/13 03:35:41;;;;;;;;;6.25;6.00;;;;;;;;5145088;27;9806;-82
2023/10/13 03:38:17;;;;;;;;;5.00;5.00;;;;;;;;5144500;27;9408;-82
2023/10/13 03:40:48;;;;;;;;;5.00;5.00;;;;;;;;5145713;27;9573;-82
2023/10/13 03:43:13;;;;;;;;;6.00;5.00;;;;;;;;5145304;27;9528;-82
2023/10/13 03:45:42;;;;;;;;;9.00;5.00;;;;;;;;5137336;27;10099;-81
2023/10/13 03:48:11;;;;;;;;;7.75;7.00;;;;;;;;5124821;27;8775;-82
2023/10/13 03:50:47;;;;;;;;;8.75;7.75;;;;;;;;5125089;28;9422;-82
2023/10/13 03:53:13;;;;;;;;;6.25;6.00;;;;;;;;5123607;28;9662;-81
2023/10/13 03:55:39;;;;;;;;;10.25;7.50;;;;;;;;5124751;28;9801;-82
2023/10/13 03:58:04;;;;;;;;;9.75;6.00;;;;;;;;5124597;28;8807;-81
2023/10/13 04:00:31;;;;;;;;;5.50;5.50;;;;;;;;5124848;28;8810;-82
2023/10/13 04:05:38;;;;;;;;;6.33;5.00;;;;;;;;5124522;28;9804;-82
2023/10/13 04:22:54;;;;;;;;;10.00;7.00;;;;;;;;5145308;27;9833;-82
2023/10/13 04:29:45;;;;;;;;;12.25;8.25;;;;;;;;5123942;27;9705;-82
2023/10/13 04:32:13;;;;;;;;;10.50;8.00;;;;;;;;5124536;28;9648;-82
2023/10/13 04:34:39;;;;;;;;;6.25;6.25;;;;;;;;5123838;28;9655;-82
2023/10/13 04:37:28;;;;;;;;;8.75;7.00;;;;;;;;5139938;27;10121;-82
2023/10/13 04:39:59;;;;;;;;;10.33;8.33;;;;;;;;5139150;27;8785;-82
2023/10/13 04:42:39;;;;;;;;;9.67;7.33;;;;;;;;5143993;27;9422;-81
2023/10/13 04:45:16;;;;;;;;;7.50;6.00;;;;;;;;5144831;27;9501;-82
2023/10/13 04:47:47;;;;;;;;;8.33;6.33;;;;;;;;5135402;27;10363;-82
2023/10/13 04:50:22;;;;;;;;;8.00;5.25;;;;;;;;5123268;28;9348;-82
2023/10/13 04:53:01;;;;;;;;;6.00;5.25;;;;;;;;5122739;28;9643;-82
2023/10/13 04:58:11;;;;;;;;;7.50;7.00;;;;;;;;5123688;28;9858;-82
2023/10/13 05:44:37;;;;;;;;;7.00;4.75;;;;;;;;5121193;27;9708;-78
2023/10/13 05:49:50;;;;;;;;;11.25;6.75;;;;;;;;5120971;28;9580;-79
2023/10/13 05:52:19;;;;;;;;;7.00;7.00;;;;;;;;5117850;28;10046;-80
2023/10/13 06:30:17;;;;;;;;;11.50;11.00;;;;;;;;5133538;27;9709;-79
2023/10/13 06:32:42;;;;;;;;;10.00;8.75;;;;;;;;5121004;27;9853;-80
2023/10/13 06:35:08;;;;;;;;;13.50;10.25;;;;;;;;5121753;28;8906;-79
2023/10/13 06:37:34;;;;;;;;;9.75;8.00;;;;;;;;5121646;28;8809;-80
2023/10/13 06:40:05;;;;;;;;;11.00;8.33;;;;;;;;5124837;27;8795;-80
2023/10/13 06:42:34;;;;;;;;;9.25;9.25;;;;;;;;5125004;28;8719;-82
2023/10/13 06:45:08;;;;;;;;;8.00;7.00;;;;;;;;5124408;27;9882;-82
2023/10/13 06:47:33;;;;;;;;;10.75;10.00;;;;;;;;5122201;27;9647;-82
2023/10/13 06:49:59;;;;;;;;;10.50;9.75;;;;;;;;5129835;27;9802;-81
2023/10/13 06:52:29;;;;;;;;;13.50;12.00;;;;;;;;5120811;27;8787;-81
2023/10/13 06:54:55;;;;;;;;;10.25;8.00;;;;;;;;5139659;27;10144;-82
2023/10/13 06:57:20;;;;;;;;;13.75;10.50;;;;;;;;5123198;27;9672;-82
2023/10/13 06:59:49;;;;;;;;;14.75;11.75;;;;;;;;5123755;28;9815;-82
2023/10/13 07:02:33;;;;;;;;;13.00;12.25;;;;;;;;5124517;28;8786;-82
2023/10/13 07:05:07;;;;;;;;;7.50;6.25;;;;;;;;5124643;28;10023;-82
2023/10/13 07:07:33;;;;;;;;;10.25;9.75;;;;;;;;5132203;27;10718;-82
2023/10/13 07:09:58;;;;;;;;;10.50;10.50;;;;;;;;5130128;27;9740;-81
2023/10/13 07:12:26;;;;;;;;;13.33;7.00;;;;;;;;5139426;27;8785;-82
2023/10/13 07:14:52;;;;;;;;;15.75;10.25;;;;;;;;5145232;27;8783;-82
2023/10/13 07:17:23;;;;;;;;;12.75;10.50;;;;;;;;5138375;27;9768;-83
2023/10/13 07:20:06;;;;;;;;;12.00;9.00;;;;;;;;5124338;27;9822;-83
2023/10/13 07:22:39;;;;;;;;;14.00;12.50;;;;;;;;5124785;28;9678;-82
2023/10/13 07:25:06;;;;;;;;;15.00;11.00;;;;;;;;5122706;28;10068;-82
2023/10/13 07:27:35;;;;;;;;;15.33;9.00;;;;;;;;5132059;27;9524;-82
2023/10/13 07:30:14;;;;;;;;;10.75;10.25;;;;;;;;5145326;27;9519;-81
2023/10/13 07:32:45;;;;;;;;;11.50;9.50;;;;;;;;5143911;27;9640;-82
2023/10/13 07:35:11;;;;;;;;;8.00;6.67;;;;;;;;5143126;27;10123;-82
2023/10/13 07:37:36;;;;;;;;;10.50;9.75;;;;;;;;5137431;27;9534;-83
2023/10/13 07:40:11;;;;;;;;;8.00;6.00;;;;;;;;5139838;27;10517;-82
2023/10/13 07:42:40;;;;;;;;;11.25;9.00;;;;;;;;5140387;27;9072;-82
2023/10/13 07:45:06;;;;;;;;;9.00;9.00;;;;;;;;5140197;27;10040;-82
2023/10/13 07:47:32;;;;;;;;;14.50;11.25;;;;;;;;5122776;28;9724;-81
2023/10/13 07:49:58;;;;;;;;;7.50;7.25;;;;;;;;5118485;28;8947;-81
2023/10/13 07:52:26;;;;;;;;;11.00;5.25;;;;;;;;5124675;27;9583;-82
2023/10/13 07:57:35;;;;;;;;;10.33;9.00;;;;;;;;5103929;28;9456;-81
2023/10/13 08:03:09;;;;;;;;;11.75;9.50;;;;;;;;5060249;28;8804;-82
2023/10/13 08:05:55;;;;;;;;;13.50;9.50;;;;;;;;5059223;28;9889;-81
2023/10/13 08:08:21;;;;;;;;;12.00;9.75;;;;;;;;5043167;28;9719;-82
2023/10/13 08:10:47;;;;;;;;;10.00;6.75;;;;;;;;5060472;28;9750;-82
2023/10/13 08:13:12;;;;;;;;;10.50;8.75;;;;;;;;5043497;28;9716;-83
2023/10/13 08:15:47;;;;;;;;;9.00;8.25;;;;;;;;5059717;28;10053;-82
2023/10/13 08:18:17;;;;;;;;;8.00;7.33;;;;;;;;5060491;28;8705;-82
2023/10/13 08:20:44;;;;;;;;;8.00;7.00;;;;;;;;5059908;28;9309;-82
2023/10/13 08:23:20;;;;;;;;;9.75;9.00;;;;;;;;5060848;28;9615;-82
2023/10/13 08:28:53;;;;;;;;;9.67;7.67;;;;;;;;5060325;28;9796;-82
2023/10/13 08:31:25;;;;;;;;;11.25;8.25;;;;;;;;5060030;28;9441;-83
2023/10/13 08:33:57;;;;;;;;;15.67;8.67;;;;;;;;5057835;28;9568;-82
2023/10/13 08:36:29;;;;;;;;;13.00;8.00;;;;;;;;5066793;28;9517;-82
2023/10/13 08:38:55;;;;;;;;;9.00;8.00;;;;;;;;5090292;27;9506;-82
2023/10/13 08:43:53;;;;;;;;;9.67;8.00;;;;;;;;5143263;27;8871;-82
2023/10/13 08:46:29;;;;;;;;;8.67;7.67;;;;;;;;5144020;27;9498;-82
2023/10/13 08:49:15;;;;;;;;;7.33;5.00;;;;;;;;5124300;27;9705;-79
2023/10/13 08:51:44;;;;;;;;;10.67;10.00;;;;;;;;5102596;28;9145;-78
2023/10/13 08:54:19;;;;;;;;;9.00;7.00;;;;;;;;5119205;27;9278;-77
2023/10/13 08:56:55;;;;;;;;;10.00;7.00;;;;;;;;5128716;27;9489;-77
2023/10/13 08:59:38;;;;;;;;;8.33;7.00;;;;;;;;5143736;27;9505;-78
2023/10/13 09:02:18;;;;;;;;;12.67;9.00;;;;;;;;5102775;28;9175;-79
2023/10/13 09:04:47;;;;;;;;;8.33;6.33;;;;;;;;5101661;28;9483;-77
2023/10/13 09:07:15;;;;;;;;;9.33;9.00;;;;;;;;5102723;28;9434;-80
2023/10/13 09:12:36;;;;;;;;;6.00;6.00;;;;;;;;5123050;27;9383;-80
2023/10/13 09:15:59;;;;;;;;;9.67;6.33;;;;;;;;5120919;28;9471;-78
2023/10/13 09:18:15;;;;;;;;;6.00;6.00;;;;;;;;5122124;27;10464;-79
2023/10/13 09:23:23;;;;;;;;;8.67;6.67;;;;;;;;5123192;28;9408;-78
2023/10/13 09:25:58;;;;;;;;;7.67;6.33;;;;;;;;5122299;28;8764;-79
2023/10/13 09:28:25;;;;;;;;;7.00;6.00;;;;;;;;5122808;27;9372;-78
2023/10/13 09:30:56;;;;;;;;;11.00;6.67;;;;;;;;5122121;27;9216;-78
2023/10/13 09:33:35;;;;;;;;;8.00;7.00;;;;;;;;5136693;27;9187;-78
2023/10/13 09:36:04;;;;;;;;;9.33;6.00;;;;;;;;5120923;28;9266;-78
2023/10/13 09:38:31;;;;;;;;;8.33;7.00;;;;;;;;5145674;27;11112;-80
2023/10/13 09:40:58;;;;;;;;;7.67;6.67;;;;;;;;5130701;27;9115;-80
2023/10/13 09:43:25;;;;;;;;;8.67;6.00;;;;;;;;5132824;27;10265;-81
2023/10/13 09:46:15;;;;;;;;;7.00;5.67;;;;;;;;5131945;27;9351;-81
2023/10/13 09:48:46;;;;;;;;;6.67;6.67;;;;;;;;5121695;27;9485;-81
2023/10/13 09:51:19;;;;;;;;;8.00;5.00;;;;;;;;5121435;28;9194;-81
2023/10/13 09:53:53;;;;;;;;;8.00;6.33;;;;;;;;5110310;27;8973;-81
2023/10/13 09:56:23;;;;;;;;;12.00;8.00;;;;;;;;5101786;28;9310;-81
2023/10/13 09:58:55;;;;;;;;;6.00;6.00;;;;;;;;5101722;28;9356;-81
2023/10/13 10:01:31;;;;;;;;;9.67;7.67;;;;;;;;5120602;28;9092;-82
2023/10/13 10:04:10;;;;;;;;;8.33;7.33;;;;;;;;5121583;28;9051;-81
2023/10/13 10:06:39;;;;;;;;;9.00;7.00;;;;;;;;5122152;27;9222;-81
2023/10/13 10:09:11;;;;;;;;;5.67;5.67;;;;;;;;5120514;28;10260;-80
2023/10/13 10:11:48;;;;;;;;;7.00;7.00;;;;;;;;5131042;27;9124;-80
2023/10/13 10:14:17;;;;;;;;;9.00;9.00;;;;;;;;5107966;28;9209;-77
2023/10/13 10:17:01;;;;;;;;;7.67;7.67;;;;;;;;5122951;27;9246;-76
2023/10/13 10:19:30;;;;;;;;;8.00;7.00;;;;;;;;5125099;27;9501;-76
2023/10/13 10:22:27;;;;;;;;;7.00;7.00;;;;;;;;5144412;27;9410;-76
2023/10/13 10:24:58;;;;;;;;;9.00;8.33;;;;;;;;5124407;27;9719;-76
2023/10/13 10:27:24;;;;;;;;;10.33;8.00;;;;;;;;5116445;27;9207;-73
2023/10/13 10:29:53;;;;;;;;;13.00;9.33;;;;;;;;5113062;28;9357;-74
2023/10/13 10:32:19;;;;;;;;;9.75;7.00;;;;;;;;5115636;27;8778;-74
2023/10/13 10:34:44;;;;;;;;;6.67;6.67;;;;;;;;5114966;28;8854;-77
2023/10/13 10:37:11;;;;;;;;;8.67;7.67;;;;;;;;5113477;28;8801;-77
2023/10/13 10:39:49;;;;;;;;;10.00;7.00;;;;;;;;5115049;28;8814;-77
2023/10/13 10:42:15;;;;;;;;;12.33;6.00;;;;;;;;5128631;27;9077;-77
2023/10/13 10:44:43;;;;;;;;;8.33;7.67;;;;;;;;5115280;28;9281;-77
2023/10/13 10:47:31;;;;;;;;;8.67;6.67;;;;;;;;5117573;28;11552;-77
2023/10/13 10:50:19;;;;;;;;;7.00;5.67;;;;;;;;5125395;27;9362;-77
2023/10/13 10:52:44;;;;;;;;;10.67;8.33;;;;;;;;5141283;27;9145;-77
2023/10/13 10:55:13;;;;;;;;;13.00;8.00;;;;;;;;5124869;28;9109;-77
2023/10/13 10:57:42;;;;;;;;;7.33;5.67;;;;;;;;5125309;28;8898;-77
2023/10/13 11:00:18;;;;;;;;;11.67;10.67;;;;;;;;5124124;28;9297;-77
2023/10/13 11:02:52;;;;;;;;;6.67;5.33;;;;;;;;5132524;27;8939;-79
2023/10/13 11:05:19;;;;;;;;;7.00;7.00;;;;;;;;5145427;27;8900;-85
2023/10/13 11:07:50;;;;;;;;;10.33;5.33;;;;;;;;5140087;27;8984;-79
2023/10/13 11:10:29;;;;;;;;;4.67;4.67;;;;;;;;5121606;28;10308;-78
2023/10/13 11:13:21;;;;;;;;;15.33;8.33;;;;;;;;5122325;28;8912;-78
2023/10/13 11:15:47;;;;;;;;;7.00;5.67;;;;;;;;5122562;28;9006;-78
2023/10/13 11:18:22;;;;;;;;;8.00;6.67;;;;;;;;5124141;27;9113;-78
2023/10/13 11:20:55;;;;;;;;;6.00;6.00;;;;;;;;5122359;27;8787;-78
2023/10/13 11:23:25;;;;;;;;;5.67;5.67;;;;;;;;5153499;27;9132;-78
2023/10/13 11:26:00;;;;;;;;;7.00;6.00;;;;;;;;5131054;27;9022;-79
2023/10/13 11:28:28;;;;;;;;;9.00;7.67;;;;;;;;5129817;27;8843;-78
2023/10/13 11:31:00;;;;;;;;;8.25;6.50;;;;;;;;5135014;27;10111;-78
2023/10/13 11:33:29;;;;;;;;;7.75;6.75;;;;;;;;5126422;27;8757;-78
2023/10/13 11:35:55;;;;;;;;;6.75;6.25;;;;;;;;5126671;27;8774;-78
2023/10/13 11:38:26;;;;;;;;;11.67;6.00;;;;;;;;5123053;27;8756;-78
2023/10/13 11:48:36;;;;;;;;;11.33;6.00;;;;;;;;5123918;28;8891;-78
2023/10/13 11:51:08;;;;;;;;;9.67;6.67;;;;;;;;5137369;27;8811;-78
2023/10/13 11:53:37;;;;;;;;;8.00;6.33;;;;;;;;5126230;27;8977;-78
2023/10/13 11:56:09;;;;;;;;;8.33;5.00;;;;;;;;5124350;27;8861;-78
2023/10/13 11:58:39;;;;;;;;;6.67;5.00;;;;;;;;5127128;27;8947;-75
2023/10/13 12:06:33;;;;;;;;;9.00;6.67;;;;;;;;5131387;27;8780;-74
2023/10/13 12:09:11;;;;;;;;;10.00;5.33;;;;;;;;5119740;27;8796;-74
2023/10/13 12:11:39;;;;;;;;;5.00;5.00;;;;;;;;5131031;27;9004;-74
2023/10/13 12:14:16;;;;;;;;;11.00;6.33;;;;;;;;5141849;27;9849;-74
2023/10/13 12:16:42;;;;;;;;;5.50;4.00;;;;;;;;5131535;27;8847;-75
2023/10/13 12:19:11;;;;;;;;;6.00;6.00;;;;;;;;5132330;27;8860;-75
2023/10/13 12:21:37;;;;;;;;;7.00;6.50;;;;;;;;5139491;27;11379;-75
2023/10/13 12:24:03;;;;;;;;;4.75;4.00;;;;;;;;5132994;27;8743;-75
2023/10/13 12:26:32;;;;;;;;;5.00;4.00;;;;;;;;5134766;27;8800;-75
2023/10/13 12:29:06;;;;;;;;;7.75;6.00;;;;;;;;5132582;27;8909;-75
2023/10/13 12:31:32;;;;;;;;;5.25;4.25;;;;;;;;5129437;27;8798;-74
2023/10/13 12:34:06;;;;;;;;;6.67;5.67;;;;;;;;5131717;27;8771;-72
2023/10/13 12:36:40;;;;;;;;;6.50;5.00;;;;;;;;5147649;27;8799;-72
2023/10/13 12:49:58;;;;;;;;;8.25;6.00;;;;;;;;5100201;28;8806;-75
2023/10/13 12:52:26;;;;;;;;;9.00;9.00;;;;;;;;5100144;28;8884;-75
2023/10/13 12:57:23;;;;;;;;;17.50;12.50;;;;;;;;5099369;28;8859;-77
2023/10/13 12:59:55;;;;;;;;;13.33;11.33;;;;;;;;5098233;28;8838;-76
2023/10/13 13:02:20;;;;;;;;;14.33;13.33;;;;;;;;5098740;28;8803;-75
2023/10/13 13:04:48;;;;;;;;;15.67;11.33;;;;;;;;5098861;28;8907;-75
2023/10/13 13:07:13;;;;;;;;;10.50;9.75;;;;;;;;5099783;28;8751;-75
2023/10/13 13:09:41;;;;;;;;;12.00;9.00;;;;;;;;5082211;28;8798;-77
2023/10/13 13:12:07;;;;;;;;;12.00;9.75;;;;;;;;5081983;28;10223;-75
2023/10/13 13:14:34;;;;;;;;;16.00;9.00;;;;;;;;5093232;28;8803;-74
2023/10/13 13:17:05;;;;;;;;;9.50;7.00;;;;;;;;5094904;28;8804;-74
2023/10/13 13:19:39;;;;;;;;;7.75;6.25;;;;;;;;5089821;28;8806;-73
2023/10/13 13:22:14;;;;;;;;;8.00;7.00;;;;;;;;5113622;27;8960;-73
2023/10/13 13:24:46;;;;;;;;;11.50;8.25;;;;;;;;5114628;27;8811;-73
2023/10/13 13:27:17;;;;;;;;;8.50;6.50;;;;;;;;5128115;27;9822;-75
2023/10/13 13:29:43;;;;;;;;;9.00;9.00;;;;;;;;5130696;27;8900;-75
2023/10/13 13:32:18;;;;;;;;;7.00;6.25;;;;;;;;5107403;28;8941;-74
2023/10/13 13:34:44;;;;;;;;;10.25;6.25;;;;;;;;5141567;27;8938;-74
2023/10/13 13:37:12;;;;;;;;;11.00;7.00;;;;;;;;5143041;27;8816;-75
2023/10/13 13:39:43;;;;;;;;;6.00;5.00;;;;;;;;5133167;27;8764;-75
2023/10/13 13:42:09;;;;;;;;;11.50;7.50;;;;;;;;5120674;28;8825;-74
2023/10/13 13:44:37;;;;;;;;;9.25;5.75;;;;;;;;5125750;27;8873;-74
2023/10/13 13:47:11;;;;;;;;;7.75;6.00;;;;;;;;5131046;27;8725;-74
2023/10/13 13:49:40;;;;;;;;;7.33;5.67;;;;;;;;5129444;27;8807;-76
2023/10/13 13:52:06;;;;;;;;;8.00;6.25;;;;;;;;5130713;27;9161;-75
2023/10/13 13:54:31;;;;;;;;;11.00;5.50;;;;;;;;5128295;27;8855;-72
2023/10/13 13:56:57;;;;;;;;;5.00;5.00;;;;;;;;5122203;28;9466;-76
2023/10/13 13:59:22;;;;;;;;;6.00;4.00;;;;;;;;5121984;27;9545;-75
2023/10/13 14:01:47;;;;;;;;;8.33;5.67;;;;;;;;5123387;27;8967;-76
2023/10/13 14:04:17;;;;;;;;;10.33;7.67;;;;;;;;5120400;28;8877;-73
2023/10/13 14:06:44;;;;;;;;;6.25;6.00;;;;;;;;5140984;27;8812;-73
2023/10/13 14:09:16;;;;;;;;;8.33;5.67;;;;;;;;5138343;27;8786;-73
2023/10/13 14:16:51;;;;;;;;;9.33;5.33;;;;;;;;5142657;27;9867;-73
2023/10/13 14:19:28;;;;;;;;;7.33;4.67;;;;;;;;5140626;27;8961;-74
2023/10/13 14:21:56;;;;;;;;;6.67;6.33;;;;;;;;5127400;27;8959;-74
2023/10/13 14:24:33;;;;;;;;;5.75;5.25;;;;;;;;5121137;27;8856;-74
2023/10/13 14:27:07;;;;;;;;;7.50;5.75;;;;;;;;5123190;27;8775;-75
2023/10/13 14:29:32;;;;;;;;;7.00;5.67;;;;;;;;5114079;27;8818;-73
2023/10/13 14:31:59;;;;;;;;;8.00;5.33;;;;;;;;5115225;27;9147;-73
2023/10/13 14:34:26;;;;;;;;;12.67;6.00;;;;;;;;5110747;28;8780;-75
2023/10/13 14:36:51;;;;;;;;;10.33;6.33;;;;;;;;5137015;27;9077;-75
2023/10/13 14:39:16;;;;;;;;;8.00;4.33;;;;;;;;5110722;28;9910;-73
2023/10/13 14:41:41;;;;;;;;;9.33;7.33;;;;;;;;5126500;27;8870;-74
2023/10/13 14:44:07;;;;;;;;;6.33;5.67;;;;;;;;5121082;27;8838;-75
2023/10/13 14:46:35;;;;;;;;;10.00;7.00;;;;;;;;5125457;27;8800;-74
2023/10/13 14:49:02;;;;;;;;;8.33;4.00;;;;;;;;5121444;27;8768;-73
2023/10/13 14:51:28;;;;;;;;;8.67;6.00;;;;;;;;5118032;28;9123;-73
2023/10/13 14:53:56;;;;;;;;;9.00;6.00;;;;;;;;5117752;27;9038;-74
2023/10/13 14:56:25;;;;;;;;;8.33;4.67;;;;;;;;5122127;27;9003;-73
2023/10/13 14:58:50;;;;;;;;;9.00;5.67;;;;;;;;5116722;28;8974;-73
2023/10/13 15:01:18;;;;;;;;;9.67;7.00;;;;;;;;5132278;27;9039;-73
2023/10/13 15:03:55;;;;;;;;;8.33;6.00;;;;;;;;5143000;27;8810;-73
2023/10/13 15:06:29;;;;;;;;;7.67;6.00;;;;;;;;5150973;27;9067;-75
2023/10/13 15:08:55;;;;;;;;;9.33;7.33;;;;;;;;5139492;27;9038;-75
2023/10/13 15:11:21;;;;;;;;;11.67;9.00;;;;;;;;5129984;27;9158;-75
2023/10/13 15:13:50;;;;;;;;;8.00;7.50;;;;;;;;5124038;28;9138;-76
2023/10/13 15:16:19;;;;;;;;;10.67;9.33;;;;;;;;5124922;27;8803;-75
2023/10/13 15:18:45;;;;;;;;;10.33;9.33;;;;;;;;5124519;27;9146;-75
2023/10/13 15:21:12;;;;;;;;;9.00;7.33;;;;;;;;5132883;27;9240;-75
2023/10/13 15:23:42;;;;;;;;;9.33;7.00;;;;;;;;5133069;27;9127;-75
2023/10/13 15:26:09;;;;;;;;;14.67;9.00;;;;;;;;5133240;27;9034;-75
2023/10/13 15:28:37;;;;;;;;;10.33;9.00;;;;;;;;5132822;27;9180;-75
2023/10/13 15:31:10;;;;;;;;;14.33;8.67;;;;;;;;5135543;27;9291;-75
2023/10/13 15:33:35;;;;;;;;;11.67;9.33;;;;;;;;5147544;27;9228;-75
2023/10/13 15:36:00;;;;;;;;;11.67;9.00;;;;;;;;5133008;27;9105;-75
2023/10/13 15:38:28;;;;;;;;;6.00;6.00;;;;;;;;5135646;27;8843;-74
2023/10/13 15:40:54;;;;;;;;;13.67;10.67;;;;;;;;5144231;27;8775;-74
2023/10/13 15:43:19;;;;;;;;;13.33;11.00;;;;;;;;5144497;27;9039;-74
2023/10/13 15:45:45;;;;;;;;;12.00;8.00;;;;;;;;5127669;27;9221;-75
2023/10/13 15:48:11;;;;;;;;;9.67;8.67;;;;;;;;5128426;27;8926;-73
2023/10/13 15:50:40;;;;;;;;;12.33;9.33;;;;;;;;5128123;27;8826;-73
2023/10/13 15:53:06;;;;;;;;;13.67;8.00;;;;;;;;5123692;27;8796;-73
2023/10/13 15:55:34;;;;;;;;;16.00;8.00;;;;;;;;5123045;27;9174;-74
2023/10/13 15:58:00;;;;;;;;;10.67;9.67;;;;;;;;5120439;27;9103;-73
2023/10/13 16:00:25;;;;;;;;;15.33;11.33;;;;;;;;5123197;27;9648;-73
2023/10/13 16:02:54;;;;;;;;;9.67;8.33;;;;;;;;5131302;27;8827;-74
2023/10/13 16:05:23;;;;;;;;;10.33;7.00;;;;;;;;5129399;27;8750;-74
2023/10/13 16:07:50;;;;;;;;;8.00;6.00;;;;;;;;5123736;28;8984;-73
2023/10/13 16:10:16;;;;;;;;;8.33;6.33;;;;;;;;5123390;27;9215;-73
2023/10/13 16:12:44;;;;;;;;;11.67;10.33;;;;;;;;5125261;27;9173;-75
2023/10/13 16:15:13;;;;;;;;;12.00;8.67;;;;;;;;5123739;27;8794;-75
2023/10/13 16:17:39;;;;;;;;;14.00;8.33;;;;;;;;5143418;27;9173;-75
2023/10/13 16:20:11;;;;;;;;;17.00;10.67;;;;;;;;5143643;27;9380;-75
2023/10/13 16:22:37;;;;;;;;;12.67;8.00;;;;;;;;5128114;27;9138;-75
2023/10/13 16:25:06;;;;;;;;;10.33;7.00;;;;;;;;5123457;28;9242;-75
2023/10/13 16:27:32;;;;;;;;;11.67;9.33;;;;;;;;5142578;27;8818;-75
2023/10/13 16:29:57;;;;;;;;;16.00;7.67;;;;;;;;5143112;27;10013;-75
2023/10/13 16:32:26;;;;;;;;;16.67;8.67;;;;;;;;5144058;27;8808;-75
2023/10/13 16:34:51;;;;;;;;;12.50;11.00;;;;;;;;5144318;27;8793;-75
2023/10/13 16:37:16;;;;;;;;;13.00;10.33;;;;;;;;5143605;27;9375;-74
2023/10/13 16:39:44;;;;;;;;;13.67;12.00;;;;;;;;5142797;27;10323;-76
2023/10/13 16:42:10;;;;;;;;;12.33;10.67;;;;;;;;5143647;27;8798;-74
2023/10/13 16:44:38;;;;;;;;;8.33;8.00;;;;;;;;5140353;27;9439;-75
2023/10/13 16:47:04;;;;;;;;;11.00;10.00;;;;;;;;5128032;27;9457;-75
2023/10/13 16:49:30;;;;;;;;;14.00;10.67;;;;;;;;5120537;27;9644;-75
2023/10/13 16:51:56;;;;;;;;;12.00;10.00;;;;;;;;5124740;27;8759;-78
2023/10/13 16:54:22;;;;;;;;;14.00;10.00;;;;;;;;5129116;27;9251;-74
2023/10/13 16:56:47;;;;;;;;;15.33;13.33;;;;;;;;5138687;27;9348;-75
2023/10/13 16:59:14;;;;;;;;;17.00;14.67;;;;;;;;5129271;27;8936;-77
2023/10/13 17:01:39;;;;;;;;;11.33;10.00;;;;;;;;5130070;27;8790;-77
2023/10/13 17:04:05;;;;;;;;;15.67;11.00;;;;;;;;5133198;27;9284;-78
2023/10/13 17:06:30;;;;;;;;;19.33;14.33;;;;;;;;5130263;27;8812;-73
2023/10/13 17:08:55;;;;;;;;;11.67;11.33;;;;;;;;5129365;27;10221;-74
2023/10/13 17:11:21;;;;;;;;;14.33;7.67;;;;;;;;5130797;27;8853;-75
2023/10/13 17:13:48;;;;;;;;;11.33;11.00;;;;;;;;5132265;27;8797;-75
2023/10/13 17:16:15;;;;;;;;;11.67;11.67;;;;;;;;5135375;27;8884;-74
2023/10/13 17:18:41;;;;;;;;;13.33;12.00;;;;;;;;5126080;27;9475;-75
2023/10/13 17:21:21;;;;;;;;;14.33;13.67;;;;;;;;5122391;28;9292;-75
2023/10/13 17:23:50;;;;;;;;;13.75;13.75;;;;;;;;5121482;28;8818;-75
2023/10/13 17:26:16;;;;;;;;;13.75;12.75;;;;;;;;5121000;27;9633;-75
2023/10/13 17:28:42;;;;;;;;;20.00;15.50;;;;;;;;5134137;27;9798;-76
2023/10/13 17:31:08;;;;;;;;;17.25;16.75;;;;;;;;5122080;28;10423;-75
2023/10/13 17:33:38;;;;;;;;;24.50;15.25;;;;;;;;5122250;28;8795;-75
2023/10/13 17:36:06;;;;;;;;;19.00;12.50;;;;;;;;5121888;28;9176;-74
2023/10/13 17:38:32;;;;;;;;;29.00;22.50;;;;;;;;5121989;28;9820;-75
2023/10/13 17:40:59;;;;;;;;;26.50;24.25;;;;;;;;5123601;27;9894;-78
2023/10/13 17:43:25;;;;;;;;;28.75;22.00;;;;;;;;5144060;27;8773;-75
2023/10/13 17:45:50;;;;;;;;;33.00;28.75;;;;;;;;5141990;27;9925;-75